Time;durP1;ratioP1;P1;durP2;ratioP2;P2;SDS_P1;SDS_P2;PMS_P1;PMS_P2;Temp;Humidity;BMP_temperature;BMP_pressure;BME280_temperature;BME280_humidity;BME280_pressure;Samples;Min_cycle;Max_cycle;Signal;HPM_P1;HPM_P2
2023/01/02 00:00:09;;;;;;;18.73;12.07;;;10.60;99.90;;;;;;5070633;28;20032;-52
2023/01/02 00:02:35;;;;;;;20.77;11.93;;;10.90;99.90;;;;;;5069225;28;20145;-52
2023/01/02 00:05:01;;;;;;;21.33;12.20;;;10.40;99.90;;;;;;5071448;28;20123;-51
2023/01/02 00:07:26;;;;;;;17.50;12.23;;;10.50;99.90;;;;;;5070464;28;20089;-49
2023/01/02 00:09:52;;;;;;;17.58;11.38;;;10.90;99.90;;;;;;5071309;28;20032;-51
2023/01/02 00:12:18;;;;;;;21.65;12.75;;;10.70;99.90;;;;;;5071317;28;20052;-47
2023/01/02 00:14:43;;;;;;;18.23;12.00;;;10.90;99.90;;;;;;5069029;28;20121;-48
2023/01/02 00:17:09;;;;;;;20.95;13.20;;;10.40;99.90;;;;;;5071392;28;20091;-51
2023/01/02 00:19:35;;;;;;;22.65;12.75;;;10.90;99.90;;;;;;5071183;28;20478;-51
2023/01/02 00:22:00;;;;;;;19.88;13.90;;;11.10;99.90;;;;;;5070553;28;20075;-52
2023/01/02 00:24:26;;;;;;;25.67;14.48;;;11.00;99.90;;;;;;5071319;28;20040;-51
2023/01/02 00:26:52;;;;;;;23.77;13.18;;;11.00;99.90;;;;;;5071129;28;20094;-48
2023/01/02 00:29:17;;;;;;;18.15;12.02;;;10.40;99.90;;;;;;5071479;28;20040;-50
2023/01/02 00:31:43;;;;;;;21.13;13.07;;;10.80;99.90;;;;;;5071101;28;20115;-48
2023/01/02 00:34:09;;;;;;;25.27;13.80;;;10.50;99.90;;;;;;5071131;28;20533;-49
2023/01/02 00:36:34;;;;;;;20.85;13.50;;;10.80;99.90;;;;;;5070862;28;20044;-47
2023/01/02 00:39:00;;;;;;;22.35;13.43;;;10.40;99.90;;;;;;5075460;28;20036;-48
2023/01/02 00:41:26;;;;;;;23.95;13.43;;;10.60;99.90;;;;;;5070900;28;20043;-46
2023/01/02 00:43:51;;;;;;;22.92;14.27;;;11.00;99.90;;;;;;5071138;28;20064;-50
2023/01/02 00:46:17;;;;;;;25.80;14.38;;;11.10;99.90;;;;;;5070713;28;20044;-50
2023/01/02 00:48:43;;;;;;;22.75;14.52;;;10.70;99.90;;;;;;5068446;28;20036;-49
2023/01/02 00:51:09;;;;;;;20.80;13.43;;;11.10;99.90;;;;;;5070553;28;20032;-48
2023/01/02 00:53:35;;;;;;;30.13;15.73;;;10.50;99.90;;;;;;5070587;28;20123;-47
2023/01/02 00:56:00;;;;;;;24.30;14.27;;;11.00;99.90;;;;;;5070695;28;20123;-50
2023/01/02 00:58:26;;;;;;;23.60;14.15;;;10.50;99.90;;;;;;5078388;28;20538;-51
2023/01/02 01:00:52;;;;;;;29.10;15.02;;;11.10;99.90;;;;;;5070694;28;20422;-49
2023/01/02 01:03:18;;;;;;;25.88;14.82;;;10.60;99.90;;;;;;5070956;28;20028;-49
2023/01/02 01:05:43;;;;;;;26.50;15.88;;;10.70;99.90;;;;;;5068765;28;20094;-45
2023/01/02 01:08:09;;;;;;;29.00;16.15;;;11.20;99.90;;;;;;5070793;28;20380;-50
2023/01/02 01:10:36;;;;;;;28.70;15.55;;;11.10;99.90;;;;;;5069104;28;20035;-49
2023/01/02 01:13:03;;;;;;;27.80;15.60;;;10.70;99.90;;;;;;5069068;28;20466;-52
2023/01/02 01:15:29;;;;;;;28.88;16.38;;;11.00;99.90;;;;;;5069172;28;20111;-49
2023/01/02 01:17:54;;;;;;;27.23;16.58;;;11.20;99.90;;;;;;5071191;28;20078;-51
2023/01/02 01:20:20;;;;;;;29.77;16.77;;;10.90;99.90;;;;;;5069720;28;20131;-48
2023/01/02 01:22:46;;;;;;;32.63;16.90;;;11.30;99.90;;;;;;5069815;28;20036;-48
2023/01/02 01:25:11;;;;;;;28.10;15.65;;;10.60;99.90;;;;;;5068778;28;20455;-47
2023/01/02 01:27:37;;;;;;;28.77;16.70;;;10.60;99.90;;;;;;5070163;28;20040;-50
2023/01/02 01:30:04;;;;;;;31.15;16.77;;;11.30;99.90;;;;;;5070417;28;20036;-49
2023/01/02 01:32:30;;;;;;;24.23;16.58;;;11.20;99.90;;;;;;5068268;28;20487;-48
2023/01/02 01:34:56;;;;;;;33.53;17.17;;;10.60;99.90;;;;;;5074248;28;20052;-52
2023/01/02 01:37:21;;;;;;;29.40;16.00;;;11.10;99.90;;;;;;5070117;28;20157;-50
2023/01/02 01:39:47;;;;;;;28.95;16.08;;;10.60;99.90;;;;;;5069780;28;20041;-49
2023/01/02 01:42:14;;;;;;;25.35;14.80;;;11.10;99.90;;;;;;5069882;28;20506;-49
2023/01/02 01:44:51;;;;;;;28.48;15.45;;;11.00;99.90;;;;;;5069713;28;20072;-48
2023/01/02 01:47:52;;;;;;;27.45;16.83;;;11.20;99.90;;;;;;5070377;28;20441;-49
2023/01/02 01:50:26;;;;;;;29.05;16.15;;;11.30;99.90;;;;;;5050445;28;20075;-49
2023/01/02 01:53:02;;;;;;;30.02;16.90;;;11.30;99.90;;;;;;5069655;28;20400;-47
2023/01/02 01:55:52;;;;;;;33.92;16.95;;;11.30;99.90;;;;;;5069807;28;20039;-49
2023/01/02 01:58:22;;;;;;;26.73;15.77;;;10.80;99.90;;;;;;5069756;28;20454;-52
2023/01/02 02:00:48;;;;;;;26.95;15.27;;;11.20;99.90;;;;;;5069960;28;20049;-48
2023/01/02 02:03:17;;;;;;;24.95;15.95;;;11.20;99.90;;;;;;5070178;28;20079;-50
2023/01/02 02:05:43;;;;;;;28.50;15.82;;;10.70;99.90;;;;;;5069852;28;20443;-48
2023/01/02 02:08:31;;;;;;;24.88;14.80;;;11.10;99.90;;;;;;5069714;28;20047;-52
2023/01/02 02:10:58;;;;;;;26.85;14.15;;;10.60;99.90;;;;;;5069614;28;20040;-48
2023/01/02 02:13:24;;;;;;;28.98;14.48;;;10.80;99.90;;;;;;5072372;28;20041;-49
2023/01/02 02:15:59;;;;;;;30.17;14.68;;;10.60;99.90;;;;;;5071339;28;20049;-48
2023/01/02 02:19:03;;;;;;;26.88;14.73;;;11.30;99.90;;;;;;5068197;28;20529;-49
2023/01/02 02:21:53;;;;;;;22.43;13.97;;;11.30;99.90;;;;;;5068187;28;20094;-50
2023/01/02 02:24:55;;;;;;;22.48;13.45;;;10.60;99.90;;;;;;5069049;28;20080;-47
2023/01/02 02:27:42;;;;;;;24.45;13.82;;;11.00;99.90;;;;;;5069754;28;20547;-46
2023/01/02 02:30:15;;;;;;;27.60;14.38;;;11.40;99.90;;;;;;5070972;28;20044;-48
2023/01/02 02:32:53;;;;;;;25.67;12.98;;;10.70;99.90;;;;;;5073705;28;20507;-50
2023/01/02 02:35:41;;;;;;;20.38;12.02;;;10.70;99.90;;;;;;5076910;28;20044;-51
2023/01/02 02:38:17;;;;;;;23.52;13.00;;;11.40;99.90;;;;;;5079312;28;20431;-48
2023/01/02 02:41:02;;;;;;;21.77;12.50;;;10.70;99.90;;;;;;5082748;28;20140;-53
2023/01/02 02:43:48;;;;;;;24.65;12.48;;;11.50;99.90;;;;;;5073459;28;20044;-46
2023/01/02 02:46:51;;;;;;;25.85;14.25;;;11.50;99.90;;;;;;5075690;28;20047;-47
2023/01/02 02:49:35;;;;;;;23.60;13.15;;;11.10;99.90;;;;;;5073056;28;20044;-52
2023/01/02 02:52:13;;;;;;;;;;;11.10;99.90;;;;;;5073439;28;20028;-50
2023/01/02 02:55:09;;;;;;;26.70;12.98;;;11.40;99.90;;;;;;5072747;28;19973;-48
2023/01/02 02:57:36;;;;;;;20.60;11.80;;;11.10;99.90;;;;;;5062074;28;20055;-49
2023/01/02 03:00:08;;;;;;;21.13;12.05;;;10.90;99.90;;;;;;5072731;28;20079;-51
2023/01/02 03:02:35;;;;;;;24.10;12.43;;;10.90;99.90;;;;;;5075099;28;20444;-50
2023/01/02 03:05:05;;;;;;;23.70;12.60;;;11.40;99.90;;;;;;5072570;28;20479;-50
2023/01/02 03:07:59;;;;;;;24.58;13.77;;;11.40;99.90;;;;;;5071359;28;20032;-49
2023/01/02 03:10:25;;;;;;;24.83;13.95;;;10.90;99.90;;;;;;5073050;28;20486;-51
2023/01/02 03:12:56;;;;;;;22.88;13.90;;;11.50;99.90;;;;;;5072811;28;20076;-53
2023/01/02 03:15:50;;;;;;;24.23;12.48;;;11.60;99.90;;;;;;5073166;28;20119;-52
2023/01/02 03:18:18;;;;;;;22.38;12.55;;;11.00;99.90;;;;;;5070792;28;20036;-50
2023/01/02 03:20:59;;;;;;;23.20;13.13;;;11.50;99.90;;;;;;5073046;28;20051;-51
2023/01/02 03:23:27;;;;;;;23.73;11.57;;;11.40;99.90;;;;;;5072732;28;20032;-48
2023/01/02 03:25:55;;;;;;;26.05;13.05;;;11.60;99.90;;;;;;5072252;28;20074;-51
2023/01/02 03:28:25;;;;;;;24.75;13.40;;;11.00;99.90;;;;;;5079495;28;20136;-49
2023/01/02 03:30:55;;;;;;;21.98;12.85;;;11.10;99.90;;;;;;5072418;28;20500;-50
2023/01/02 03:33:34;;;;;;;25.70;13.38;;;11.00;99.90;;;;;;5072099;28;20036;-52
2023/01/02 03:36:05;;;;;;;23.20;13.20;;;11.60;99.90;;;;;;5072634;28;20036;-49
2023/01/02 03:38:47;;;;;;;27.42;13.18;;;11.60;99.90;;;;;;5072206;28;20083;-50
2023/01/02 03:41:23;;;;;;;27.10;14.48;;;11.40;99.90;;;;;;5072559;28;20036;-49
2023/01/02 03:43:51;;;;;;;24.58;11.90;;;11.20;99.90;;;;;;5071739;28;20040;-52
2023/01/02 03:46:25;;;;;;;27.38;14.02;;;11.20;99.90;;;;;;5071980;28;20035;-49
2023/01/02 03:48:59;;;;;;;25.15;14.35;;;11.20;99.90;;;;;;5069513;28;20040;-48
2023/01/02 03:51:25;;;;;;;24.15;14.27;;;11.50;99.90;;;;;;5072017;28;20070;-50
2023/01/02 03:53:52;;;;;;;28.80;13.90;;;11.30;99.90;;;;;;5071013;28;20491;-49
2023/01/02 03:56:21;;;;;;;23.25;13.70;;;11.30;99.90;;;;;;5072074;28;20032;-51
2023/01/02 03:58:57;;;;;;;25.13;13.82;;;11.40;99.90;;;;;;5071720;28;20068;-51
2023/01/02 04:01:38;;;;;;;28.30;13.75;;;11.50;99.90;;;;;;5070732;28;20384;-49
2023/01/02 04:04:12;;;;;;;22.77;13.13;;;11.20;99.90;;;;;;5071886;28;20043;-53
2023/01/02 04:06:42;;;;;;;22.20;13.35;;;10.90;99.90;;;;;;5071311;28;20116;-48
2023/01/02 04:09:12;;;;;;;24.05;13.98;;;11.30;99.90;;;;;;5076427;28;20036;-51
2023/01/02 04:11:41;;;;;;;29.75;14.55;;;11.50;99.90;;;;;;5071310;28;20043;-52
2023/01/02 04:14:31;;;;;;;24.27;13.10;;;10.90;99.90;;;;;;5071317;28;20032;-49
2023/01/02 04:17:00;;;;;;;21.95;13.18;;;11.60;99.90;;;;;;5068930;28;20048;-48
2023/01/02 04:19:31;;;;;;;29.52;14.20;;;11.00;99.90;;;;;;5071400;28;20035;-50
2023/01/02 04:22:00;;;;;;;25.35;14.63;;;11.30;99.90;;;;;;5070542;28;20037;-47
2023/01/02 04:24:37;;;;;;;22.80;13.65;;;11.00;99.90;;;;;;5082902;28;20051;-46
2023/01/02 04:27:16;;;;;;;25.70;13.90;;;11.00;99.90;;;;;;5077271;28;20506;-49
2023/01/02 04:29:41;;;;;;;22.88;13.45;;;11.20;99.90;;;;;;5072134;28;20033;-49
2023/01/02 04:32:22;;;;;;;23.40;13.60;;;11.80;99.90;;;;;;5069402;28;20074;-51
2023/01/02 04:34:49;;;;;;;24.98;13.48;;;11.20;99.90;;;;;;5076293;28;20094;-47
2023/01/02 04:37:34;;;;;;;25.00;12.57;;;11.80;99.90;;;;;;5092177;28;20046;-47
2023/01/02 04:40:02;;;;;;;;;;;11.10;99.90;;;;;;5092154;28;20032;-49
2023/01/02 04:42:28;;;;;;;20.48;11.63;;;11.20;99.90;;;;;;5076358;28;19920;-49
2023/01/02 04:44:53;;;;;;;19.52;12.18;;;11.30;99.90;;;;;;5071161;28;20434;-47
2023/01/02 04:47:19;;;;;;;21.92;12.57;;;11.30;99.90;;;;;;5071091;28;20049;-50
2023/01/02 04:49:44;;;;;;;21.92;12.25;;;11.90;99.90;;;;;;5069302;28;20502;-51
2023/01/02 04:52:10;;;;;;;19.17;12.18;;;11.80;99.90;;;;;;5071804;28;20047;-50
2023/01/02 04:54:36;;;;;;;25.33;12.98;;;11.90;99.90;;;;;;5071001;28;20050;-47
2023/01/02 04:57:02;;;;;;;27.58;12.75;;;11.50;99.90;;;;;;5070436;28;20044;-47
2023/01/02 04:59:27;;;;;;;21.88;12.65;;;11.50;99.90;;;;;;5070357;28;20039;-47
2023/01/02 05:01:53;;;;;;;19.73;13.18;;;11.90;99.90;;;;;;5083039;28;20061;-47
2023/01/02 05:04:18;;;;;;;21.27;13.07;;;11.80;99.90;;;;;;5069339;28;20047;-50
2023/01/02 05:06:44;;;;;;;22.30;12.88;;;12.20;99.90;;;;;;5074626;28;20037;-49
2023/01/02 05:09:10;;;;;;;21.55;12.77;;;11.70;99.90;;;;;;5074241;28;20041;-50
2023/01/02 05:11:35;;;;;;;24.83;12.65;;;12.20;99.90;;;;;;5070671;28;20040;-47
2023/01/02 05:14:01;;;;;;;19.08;12.88;;;12.20;99.90;;;;;;5069038;28;20040;-50
2023/01/02 05:16:27;;;;;;;22.52;13.07;;;12.20;99.90;;;;;;5069258;28;20036;-52
2023/01/02 05:18:52;;;;;;;16.70;12.35;;;11.90;99.90;;;;;;5068546;28;20032;-50
2023/01/02 05:24:03;;;;;;;;;;;11.90;99.90;;;;;;5069119;28;20048;-49
2023/01/02 05:26:31;;;;;;;18.02;10.88;;;11.60;99.90;;;;;;5068922;28;19924;-51
2023/01/02 05:28:57;;;;;;;19.65;11.65;;;11.70;99.90;;;;;;5065264;28;20518;-50
2023/01/02 05:31:23;;;;;;;17.98;12.15;;;12.30;99.90;;;;;;5070559;28;20040;-46
2023/01/02 05:33:51;;;;;;;20.02;12.65;;;11.70;99.90;;;;;;5071086;28;20411;-50
2023/01/02 05:36:16;;;;;;;20.73;11.82;;;11.80;99.90;;;;;;5070514;28;20498;-49
2023/01/02 05:38:42;;;;;;;15.90;11.32;;;12.40;99.90;;;;;;5071022;28;20071;-49
2023/01/02 05:41:08;;;;;;;17.80;11.35;;;11.70;99.90;;;;;;5071152;28;20482;-50
2023/01/02 05:43:35;;;;;;;15.32;10.88;;;12.20;99.90;;;;;;5070089;28;20116;-52
2023/01/02 05:46:15;;;;;;;15.98;11.65;;;12.30;99.90;;;;;;5068654;28;20036;-50
2023/01/02 05:48:42;;;;;;;17.40;11.05;;;11.70;99.90;;;;;;5070013;28;20484;-50
2023/01/02 05:51:09;;;;;;;17.17;10.05;;;12.10;99.90;;;;;;5069684;28;20028;-49
2023/01/02 05:53:36;;;;;;;13.07;9.65;;;11.90;99.90;;;;;;5069952;28;20062;-49
2023/01/02 05:56:13;;;;;;;16.15;10.27;;;12.20;99.90;;;;;;5069594;28;20080;-52
2023/01/02 05:58:40;;;;;;;18.42;10.82;;;11.80;99.90;;;;;;5073413;28;20039;-48
2023/01/02 06:01:07;;;;;;;16.70;10.05;;;11.80;99.90;;;;;;5069002;28;20194;-52
2023/01/02 06:03:33;;;;;;;14.40;9.88;;;12.40;99.90;;;;;;5067851;28;20036;-47
2023/01/02 06:06:03;;;;;;;18.10;10.18;;;12.40;99.90;;;;;;5071830;28;20522;-52
2023/01/02 06:08:29;;;;;;;17.95;10.48;;;11.90;99.90;;;;;;5074249;28;20550;-49
2023/01/02 06:10:55;;;;;;;18.30;11.05;;;12.40;99.90;;;;;;5074161;28;20036;-50
2023/01/02 06:13:20;;;;;;;15.90;11.27;;;12.40;99.90;;;;;;5073887;28;20071;-48
2023/01/02 06:15:46;;;;;;;16.50;10.55;;;12.10;99.90;;;;;;5074318;28;20090;-49
2023/01/02 06:18:12;;;;;;;18.40;10.93;;;12.20;99.90;;;;;;5074684;28;20047;-53
2023/01/02 06:20:37;;;;;;;17.85;11.88;;;12.30;99.90;;;;;;5077554;28;20040;-50
2023/01/02 06:23:03;;;;;;;22.08;11.88;;;11.90;99.90;;;;;;5074352;28;20496;-51
2023/01/02 06:25:29;;;;;;;17.38;10.63;;;11.70;99.90;;;;;;5071647;28;20064;-49
2023/01/02 06:27:54;;;;;;;18.52;11.68;;;12.10;99.90;;;;;;5085547;28;20047;-48
2023/01/02 06:30:20;;;;;;;17.63;10.63;;;12.30;99.90;;;;;;5073593;28;20525;-50
2023/01/02 06:32:45;;;;;;;16.83;11.48;;;12.20;99.90;;;;;;5073872;28;20036;-52
2023/01/02 06:35:11;;;;;;;22.42;12.55;;;11.90;99.90;;;;;;5073356;28;20479;-51
2023/01/02 06:37:43;;;;;;;12.45;7.60;;;12.10;99.90;;;;;;5074259;28;20415;-50
2023/01/02 06:40:08;;;;;;;6.80;4.72;;;12.00;99.90;;;;;;5074151;28;20033;-50
2023/01/02 06:42:34;;;;;;;5.90;4.47;;;11.80;99.90;;;;;;5073356;28;20039;-50
2023/01/02 06:45:00;;;;;;;7.18;3.53;;;11.80;99.90;;;;;;5083225;28;20105;-50
2023/01/02 06:47:25;;;;;;;5.22;3.70;;;11.30;99.90;;;;;;5070604;28;20043;-48
2023/01/02 06:49:51;;;;;;;4.70;3.40;;;11.00;99.90;;;;;;5073365;28;20492;-50
2023/01/02 06:52:17;;;;;;;5.55;3.60;;;11.40;99.90;;;;;;5073583;28;20076;-49
2023/01/02 06:54:42;;;;;;;5.72;3.83;;;10.80;99.90;;;;;;5081450;28;20036;-49
2023/01/02 06:57:08;;;;;;;5.13;3.80;;;11.10;99.90;;;;;;5073124;28;20127;-49
2023/01/02 06:59:34;;;;;;;7.90;3.95;;;10.60;99.90;;;;;;5072972;28;20044;-48
2023/01/02 07:01:59;;;;;;;5.72;3.83;;;10.60;99.90;;;;;;5072903;28;20119;-48
2023/01/02 07:04:25;;;;;;;5.40;4.07;;;10.80;99.90;;;;;;5073980;28;20277;-46
2023/01/02 07:06:51;;;;;;;6.47;4.25;;;10.80;99.90;;;;;;5073870;28;20033;-47
2023/01/02 07:09:17;;;;;;;6.25;4.93;;;10.60;99.90;;;;;;5073527;28;20550;-48
2023/01/02 07:11:42;;;;;;;8.57;5.43;;;10.50;99.90;;;;;;5072122;28;20484;-49
2023/01/02 07:14:08;;;;;;;7.85;6.30;;;10.70;99.90;;;;;;5072935;28;20032;-47
2023/01/02 07:16:34;;;;;;;8.85;6.80;;;10.30;99.90;;;;;;5087632;28;20036;-47
2023/01/02 07:18:59;;;;;;;9.80;6.28;;;10.50;99.90;;;;;;5086234;28;20470;-46
2023/01/02 07:21:25;;;;;;;8.45;6.60;;;10.50;99.90;;;;;;5073803;28;20036;-47
2023/01/02 07:23:51;;;;;;;10.68;6.95;;;10.00;99.90;;;;;;5082053;28;20502;-52
2023/01/02 07:26:16;;;;;;;11.07;7.03;;;10.20;99.90;;;;;;5072208;28;20106;-49
2023/01/02 07:28:42;;;;;;;8.40;5.47;;;10.20;99.90;;;;;;5072998;28;20446;-47
2023/01/02 07:31:12;;;;;;;10.23;5.35;;;9.80;99.90;;;;;;5073183;28;20056;-48
2023/01/02 07:33:38;;;;;;;7.97;5.13;;;9.90;99.90;;;;;;5071252;28;20043;-48
2023/01/02 07:36:06;;;;;;;8.68;4.68;;;9.90;99.90;;;;;;5071374;28;20484;-46
2023/01/02 07:38:33;;;;;;;9.70;5.20;;;9.80;99.90;;;;;;5070384;28;20032;-48
2023/01/02 07:40:59;;;;;;;8.73;4.90;;;9.50;99.90;;;;;;5072174;28;20032;-48
2023/01/02 07:43:25;;;;;;;11.48;5.47;;;9.60;99.90;;;;;;5084761;28;20046;-47
2023/01/02 07:45:51;;;;;;;11.18;5.28;;;9.30;99.90;;;;;;5077140;28;20078;-52
2023/01/02 07:48:17;;;;;;;12.02;6.03;;;9.60;99.90;;;;;;5081092;28;20035;-48
2023/01/02 07:50:43;;;;;;;9.50;5.10;;;9.30;99.90;;;;;;5070749;28;20047;-49
2023/01/02 07:53:09;;;;;;;7.93;4.20;;;9.20;99.90;;;;;;5073754;28;20025;-47
2023/01/02 07:55:35;;;;;;;7.72;3.60;;;9.10;99.90;;;;;;5072169;28;20051;-47
2023/01/02 07:58:01;;;;;;;7.95;3.60;;;9.00;99.90;;;;;;5081982;28;20028;-50
2023/01/02 08:00:26;;;;;;;7.88;3.10;;;9.00;99.90;;;;;;5072783;28;20123;-50
2023/01/02 08:02:53;;;;;;;6.88;2.47;;;8.90;99.90;;;;;;5085524;28;20378;-48
2023/01/02 08:05:20;;;;;;;7.45;2.60;;;8.80;99.90;;;;;;5071447;28;20492;-48
2023/01/02 08:07:46;;;;;;;6.82;2.40;;;9.10;99.90;;;;;;5071868;28;20044;-50
2023/01/02 08:10:12;;;;;;;5.85;2.30;;;9.00;99.90;;;;;;5084310;28;20113;-51
2023/01/02 08:12:38;;;;;;;7.60;2.67;;;8.80;99.90;;;;;;5088668;28;20416;-47
2023/01/02 08:15:05;;;;;;;5.88;1.98;;;9.00;99.90;;;;;;5076322;28;20036;-50
2023/01/02 08:17:31;;;;;;;7.15;2.10;;;8.70;99.90;;;;;;5071814;28;20090;-50
2023/01/02 08:19:57;;;;;;;6.68;2.00;;;8.60;99.90;;;;;;5070935;28;20025;-48
2023/01/02 08:22:23;;;;;;;4.93;2.05;;;8.70;99.90;;;;;;5069898;28;20496;-50
2023/01/02 08:24:49;;;;;;;6.00;1.88;;;9.00;99.90;;;;;;5069550;28;20519;-47
2023/01/02 08:27:15;;;;;;;8.48;2.17;;;8.90;99.90;;;;;;5071446;28;20498;-49
2023/01/02 08:29:41;;;;;;;6.28;1.98;;;8.70;99.90;;;;;;5070214;28;20468;-47
2023/01/02 08:32:07;;;;;;;5.53;2.33;;;8.70;99.90;;;;;;5071930;28;20033;-49
2023/01/02 08:34:35;;;;;;;5.43;2.30;;;8.80;99.90;;;;;;5062500;28;20044;-48
2023/01/02 08:37:01;;;;;;;5.97;2.10;;;8.70;99.90;;;;;;5052838;28;20040;-49
2023/01/02 08:39:28;;;;;;;5.03;1.83;;;8.90;99.90;;;;;;5051353;28;20037;-49
2023/01/02 08:41:54;;;;;;;5.03;1.80;;;8.80;99.90;;;;;;5052612;28;20041;-48
2023/01/02 08:44:20;;;;;;;4.97;1.90;;;8.90;99.90;;;;;;5051720;28;20037;-47
2023/01/02 08:46:45;;;;;;;7.82;2.30;;;8.80;99.90;;;;;;5053720;28;20025;-47
2023/01/02 08:49:11;;;;;;;4.60;1.95;;;8.70;99.90;;;;;;5049640;28;20097;-49
2023/01/02 08:51:37;;;;;;;6.95;2.28;;;8.90;99.90;;;;;;5051282;28;20033;-47
2023/01/02 08:54:02;;;;;;;6.63;2.30;;;8.90;99.90;;;;;;5053627;28;20028;-50
2023/01/02 08:56:30;;;;;;;8.82;2.88;;;8.80;99.90;;;;;;5053594;28;20695;-49
2023/01/02 08:58:59;;;;;;;7.03;2.42;;;8.60;99.90;;;;;;5052027;28;21183;-52
2023/01/02 09:01:27;;;;;;;7.95;2.65;;;8.80;99.90;;;;;;5054328;28;20050;-49
2023/01/02 09:03:53;;;;;;;9.50;3.00;;;8.90;99.90;;;;;;5049480;28;20206;-48
2023/01/02 09:06:20;;;;;;;10.35;2.75;;;8.90;99.90;;;;;;5058902;28;20066;-50
2023/01/02 09:08:46;;;;;;;9.43;2.92;;;8.60;99.90;;;;;;5060337;28;20039;-48
2023/01/02 09:11:14;;;;;;;7.72;3.67;;;8.90;99.90;;;;;;5060621;28;20032;-48
2023/01/02 09:13:40;;;;;;;6.90;2.13;;;8.80;99.90;;;;;;5057115;28;20041;-47
2023/01/02 09:16:07;;;;;;;7.07;2.47;;;8.60;99.90;;;;;;5058947;28;20480;-47
2023/01/02 09:18:33;;;;;;;6.20;2.30;;;8.60;99.90;;;;;;5058536;28;21152;-48
2023/01/02 09:20:59;;;;;;;7.30;2.70;;;8.80;99.90;;;;;;5061584;28;20112;-51
2023/01/02 09:23:25;;;;;;;8.85;2.72;;;8.50;99.90;;;;;;5061005;28;20040;-51
2023/01/02 09:25:52;;;;;;;8.10;2.30;;;8.50;99.90;;;;;;5059811;28;20062;-48
2023/01/02 09:28:17;;;;;;;5.35;2.28;;;8.50;99.90;;;;;;5060966;28;20426;-48
2023/01/02 09:30:43;;;;;;;6.30;2.28;;;8.80;99.90;;;;;;5060263;28;20036;-50
2023/01/02 09:33:09;;;;;;;6.47;2.50;;;8.60;99.90;;;;;;5060538;28;20392;-47
2023/01/02 09:35:34;;;;;;;7.93;2.38;;;8.70;99.90;;;;;;5058998;28;20047;-47
2023/01/02 09:38:00;;;;;;;7.22;2.47;;;8.70;99.90;;;;;;5059334;28;20072;-48
2023/01/02 09:40:27;;;;;;;7.55;2.50;;;8.70;99.90;;;;;;5061476;28;20047;-49
2023/01/02 09:42:54;;;;;;;5.97;2.17;;;9.00;99.90;;;;;;5060634;28;20040;-50
2023/01/02 09:45:20;;;;;;;4.93;2.20;;;8.80;99.90;;;;;;5059160;28;20040;-47
2023/01/02 09:47:46;;;;;;;4.05;1.63;;;8.90;99.90;;;;;;5057667;28;20064;-51
2023/01/02 09:50:23;;;;;;;5.30;1.85;;;9.10;99.90;;;;;;5058980;28;20036;-50
2023/01/02 09:52:56;;;;;;;5.15;1.65;;;8.80;99.90;;;;;;5060842;28;20104;-53
2023/01/02 09:55:34;;;;;;;5.40;1.60;;;9.10;99.90;;;;;;5061319;28;20049;-50
2023/01/02 09:58:24;;;;;;;5.30;2.00;;;8.80;99.90;;;;;;5061838;28;20036;-49
2023/01/02 10:00:50;;;;;;;5.53;1.90;;;9.20;99.90;;;;;;5059717;28;20045;-48
2023/01/02 10:03:39;;;;;;;5.97;2.28;;;9.10;99.90;;;;;;5060555;28;20036;-53
2023/01/02 10:06:11;;;;;;;5.90;2.60;;;8.90;99.90;;;;;;5060177;28;20040;-50
2023/01/02 10:08:46;;;;;;;5.43;2.13;;;9.20;99.90;;;;;;5060731;28;20041;-53
2023/01/02 10:11:49;;;;;;;5.50;2.03;;;8.80;99.90;;;;;;5059677;28;20131;-49
2023/01/02 10:14:36;;;;;;;4.45;2.20;;;8.80;99.90;;;;;;5059544;28;20048;-49
2023/01/02 10:17:04;;;;;;;4.53;1.90;;;9.20;99.90;;;;;;5060250;28;20033;-50
2023/01/02 10:19:41;;;;;;;4.78;2.30;;;9.10;99.90;;;;;;5060072;28;20032;-52
2023/01/02 10:22:12;;;;;;;6.60;2.47;;;8.90;99.90;;;;;;5061468;28;20133;-49
2023/01/02 10:24:43;;;;;;;7.72;3.10;;;8.80;99.90;;;;;;5061793;28;20039;-48
2023/01/02 10:27:16;;;;;;;7.10;3.72;;;9.10;99.90;;;;;;5059194;28;20064;-51
2023/01/02 10:30:04;;;;;;;8.30;4.50;;;9.10;99.90;;;;;;5057646;28;20044;-48
2023/01/02 10:32:32;;;;;;;12.45;6.53;;;9.10;99.90;;;;;;5058315;28;20032;-48
2023/01/02 10:35:06;;;;;;;14.30;6.70;;;8.80;99.90;;;;;;5058330;28;20067;-49
2023/01/02 10:37:34;;;;;;;14.93;6.53;;;9.00;99.90;;;;;;5054248;28;20037;-52
2023/01/02 10:40:00;;;;;;;13.82;5.50;;;8.90;99.90;;;;;;5053339;28;20033;-52
2023/01/02 10:42:26;;;;;;;9.70;3.85;;;9.20;99.90;;;;;;5052474;28;20040;-48
2023/01/02 10:44:53;;;;;;;6.40;2.95;;;9.20;99.90;;;;;;5051624;28;20076;-51
2023/01/02 10:47:35;;;;;;;8.98;3.15;;;9.20;99.90;;;;;;5054566;28;20418;-47
2023/01/02 10:50:04;;;;;;;10.73;3.78;;;9.30;99.90;;;;;;5054382;28;20032;-47
2023/01/02 10:52:48;;;;;;;7.93;4.07;;;9.10;99.90;;;;;;5058909;28;20044;-48
2023/01/02 10:55:31;;;;;;;7.85;4.75;;;9.00;99.90;;;;;;5058411;28;20101;-50
2023/01/02 10:58:03;;;;;;;11.30;5.07;;;9.30;99.90;;;;;;5059162;28;20427;-48
2023/01/02 11:00:31;;;;;;;10.68;4.95;;;9.20;99.90;;;;;;5060460;28;20143;-48
2023/01/02 11:03:19;;;;;;;11.10;5.38;;;9.30;99.90;;;;;;5061458;28;20050;-50
2023/01/02 11:05:50;;;;;;;9.05;5.30;;;9.20;99.90;;;;;;5062601;28;20101;-49
2023/01/02 11:08:20;;;;;;;9.82;4.55;;;9.30;99.90;;;;;;5060026;28;20046;-47
2023/01/02 11:10:46;;;;;;;9.90;4.93;;;9.20;99.90;;;;;;5064700;28;20073;-53
2023/01/02 11:13:18;;;;;;;7.68;4.32;;;9.40;99.90;;;;;;5061958;28;20039;-50
2023/01/02 11:16:05;;;;;;;12.23;4.25;;;9.30;99.90;;;;;;5060235;28;20497;-48
2023/01/02 11:18:33;;;;;;;11.90;3.85;;;9.50;99.90;;;;;;5059684;28;20048;-52
2023/01/02 11:21:04;;;;;;;11.18;4.38;;;9.50;99.90;;;;;;5061035;28;20036;-51
2023/01/02 11:23:41;;;;;;;9.98;3.42;;;9.40;99.90;;;;;;5060403;28;20033;-48
2023/01/02 11:26:21;;;;;;;9.77;3.15;;;9.20;99.90;;;;;;5060920;28;20095;-51
2023/01/02 11:28:50;;;;;;;10.55;2.80;;;9.30;99.90;;;;;;5062246;28;20048;-49
2023/01/02 11:31:17;;;;;;;8.27;2.13;;;9.40;99.90;;;;;;5061539;28;20055;-51
2023/01/02 11:33:44;;;;;;;8.57;2.53;;;9.20;99.90;;;;;;5059907;28;20067;-49
2023/01/02 11:36:10;;;;;;;11.35;3.45;;;9.30;99.90;;;;;;5059120;28;20087;-49
2023/01/02 11:38:55;;;;;;;8.85;2.20;;;9.40;99.90;;;;;;5059250;28;20056;-49
2023/01/02 11:44:47;;;;;;;8.32;1.70;;;9.20;99.90;;;;;;5061457;28;20048;-51
2023/01/02 11:47:15;;;;;;;10.90;1.98;;;9.50;99.90;;;;;;5062414;28;20036;-48
2023/01/02 11:49:48;;;;;;;9.43;2.22;;;9.30;99.90;;;;;;5059990;28;20037;-49
2023/01/02 11:52:22;;;;;;;8.18;1.60;;;9.30;99.90;;;;;;5061485;28;20502;-50
2023/01/02 11:55:10;;;;;;;11.07;1.85;;;9.20;99.90;;;;;;5061612;28;20033;-48
2023/01/02 11:57:52;;;;;;;8.02;1.40;;;9.40;99.90;;;;;;5059659;28;20457;-48
2023/01/02 12:00:19;;;;;;;13.73;2.10;;;9.30;99.90;;;;;;5059963;28;20115;-48
2023/01/02 12:02:48;;;;;;;7.18;1.45;;;9.40;99.90;;;;;;5069109;28;20086;-52
2023/01/02 12:05:19;;;;;;;9.45;1.73;;;9.30;99.90;;;;;;5074667;28;20050;-50
2023/01/02 12:07:51;;;;;;;9.23;1.83;;;9.50;99.90;;;;;;5069736;28;20045;-47
2023/01/02 12:10:27;;;;;;;7.25;1.65;;;9.40;99.90;;;;;;5069623;28;20394;-52
2023/01/02 12:13:04;;;;;;;8.13;1.92;;;9.40;99.90;;;;;;5071826;28;20422;-53
2023/01/02 12:15:54;;;;;;;7.70;1.30;;;9.40;99.90;;;;;;5071624;28;20082;-51
2023/01/02 12:19:05;;;;;;;6.70;1.50;;;9.30;99.90;;;;;;5073229;28;20056;-50
2023/01/02 12:21:43;;;;;;;9.98;2.05;;;9.40;99.90;;;;;;5072757;28;20383;-53
2023/01/02 12:24:28;;;;;;;7.38;1.60;;;9.30;99.90;;;;;;5074348;28;20379;-51
2023/01/02 12:27:10;;;;;;;9.20;2.08;;;9.40;99.90;;;;;;5071296;28;20056;-47
2023/01/02 12:29:56;;;;;;;9.77;1.73;;;9.30;99.90;;;;;;5071578;28;20497;-48
2023/01/02 12:32:31;;;;;;;7.53;1.90;;;9.40;99.90;;;;;;5074732;28;20040;-49
2023/01/02 12:35:05;;;;;;;8.05;2.05;;;9.90;99.90;;;;;;5071312;28;20036;-51
2023/01/02 12:37:48;;;;;;;;;;;9.50;99.90;;;;;;5073611;28;20102;-47
2023/01/02 12:40:25;;;;;;;10.57;2.45;;;9.40;99.90;;;;;;5070177;28;20387;-49
2023/01/02 12:42:51;;;;;;;13.13;2.15;;;9.40;99.90;;;;;;5071114;28;20045;-46
2023/01/02 12:45:32;;;;;;;12.10;2.40;;;9.40;99.90;;;;;;5070827;28;20044;-48
2023/01/02 12:48:32;;;;;;;10.80;2.10;;;9.40;99.90;;;;;;5076923;28;20142;-47
2023/01/02 12:51:38;;;;;;;8.50;2.30;;;9.40;99.90;;;;;;5078806;28;20499;-47
2023/01/02 12:54:14;;;;;;;10.13;2.60;;;9.40;99.90;;;;;;5063950;28;20052;-48
2023/01/02 12:56:57;;;;;;;13.20;2.50;;;9.40;99.90;;;;;;5070756;28;20116;-49
2023/01/02 12:59:40;;;;;;;8.73;2.13;;;9.40;99.90;;;;;;5071596;28;20107;-47
2023/01/02 13:02:36;;;;;;;12.02;2.47;;;9.40;99.90;;;;;;5070987;28;20075;-49
2023/01/02 13:05:21;;;;;;;8.02;2.08;;;9.50;99.90;;;;;;5069944;28;20036;-49